sensor_id;sensor_type;location;lat;lon;timestamp;P1;durP1;ratioP1;P2;durP2;ratioP2
61085;SDS011;46967;48.876;2.136;2023-04-21T00:01:34;20.88;;;13.27;;
61085;SDS011;46967;48.876;2.136;2023-04-21T00:03:59;20.23;;;12.90;;
61085;SDS011;46967;48.876;2.136;2023-04-21T00:06:25;17.75;;;12.57;;
61085;SDS011;46967;48.876;2.136;2023-04-21T00:08:50;19.00;;;13.80;;
61085;SDS011;46967;48.876;2.136;2023-04-21T00:11:16;17.60;;;13.05;;
61085;SDS011;46967;48.876;2.136;2023-04-21T00:13:42;17.55;;;12.82;;
61085;SDS011;46967;48.876;2.136;2023-04-21T00:16:08;19.17;;;13.98;;
61085;SDS011;46967;48.876;2.136;2023-04-21T00:18:33;18.20;;;12.75;;
61085;SDS011;46967;48.876;2.136;2023-04-21T00:20:58;18.73;;;13.25;;
61085;SDS011;46967;48.876;2.136;2023-04-21T00:23:24;16.40;;;12.38;;
61085;SDS011;46967;48.876;2.136;2023-04-21T00:25:49;18.77;;;12.80;;
61085;SDS011;46967;48.876;2.136;2023-04-21T00:28:15;18.80;;;13.65;;
61085;SDS011;46967;48.876;2.136;2023-04-21T00:30:40;21.83;;;13.25;;
61085;SDS011;46967;48.876;2.136;2023-04-21T00:33:05;21.05;;;13.55;;
61085;SDS011;46967;48.876;2.136;2023-04-21T00:35:31;18.60;;;13.07;;
61085;SDS011;46967;48.876;2.136;2023-04-21T00:37:56;18.38;;;13.02;;
61085;SDS011;46967;48.876;2.136;2023-04-21T00:40:21;17.15;;;12.73;;
61085;SDS011;46967;48.876;2.136;2023-04-21T00:42:47;19.80;;;13.68;;
61085;SDS011;46967;48.876;2.136;2023-04-21T00:45:12;18.67;;;12.50;;
61085;SDS011;46967;48.876;2.136;2023-04-21T00:47:39;16.90;;;12.88;;
61085;SDS011;46967;48.876;2.136;2023-04-21T00:50:05;16.67;;;12.23;;
61085;SDS011;46967;48.876;2.136;2023-04-21T00:52:30;17.85;;;13.13;;
61085;SDS011;46967;48.876;2.136;2023-04-21T00:54:58;18.98;;;12.63;;
61085;SDS011;46967;48.876;2.136;2023-04-21T00:57:23;16.98;;;12.18;;
61085;SDS011;46967;48.876;2.136;2023-04-21T00:59:49;17.45;;;12.40;;
61085;SDS011;46967;48.876;2.136;2023-04-21T01:02:15;19.85;;;12.27;;
61085;SDS011;46967;48.876;2.136;2023-04-21T01:04:42;18.67;;;11.68;;
61085;SDS011;46967;48.876;2.136;2023-04-21T01:07:07;17.25;;;13.02;;
61085;SDS011;46967;48.876;2.136;2023-04-21T01:09:34;17.08;;;12.30;;
61085;SDS011;46967;48.876;2.136;2023-04-21T01:14:26;22.17;;;13.23;;
61085;SDS011;46967;48.876;2.136;2023-04-21T01:16:51;19.83;;;12.88;;
61085;SDS011;46967;48.876;2.136;2023-04-21T01:19:16;20.85;;;14.48;;
61085;SDS011;46967;48.876;2.136;2023-04-21T01:21:43;19.70;;;13.70;;
61085;SDS011;46967;48.876;2.136;2023-04-21T01:24:09;20.02;;;13.52;;
61085;SDS011;46967;48.876;2.136;2023-04-21T01:26:35;18.13;;;13.38;;
61085;SDS011;46967;48.876;2.136;2023-04-21T01:29:00;20.15;;;14.13;;
61085;SDS011;46967;48.876;2.136;2023-04-21T01:31:26;17.75;;;13.38;;
61085;SDS011;46967;48.876;2.136;2023-04-21T01:33:51;18.60;;;13.63;;
61085;SDS011;46967;48.876;2.136;2023-04-21T01:36:17;19.55;;;12.93;;
61085;SDS011;46967;48.876;2.136;2023-04-21T01:38:42;17.40;;;12.32;;
61085;SDS011;46967;48.876;2.136;2023-04-21T01:41:08;20.88;;;13.68;;
61085;SDS011;46967;48.876;2.136;2023-04-21T01:43:34;18.63;;;12.95;;
61085;SDS011;46967;48.876;2.136;2023-04-21T01:46:01;19.52;;;13.15;;
61085;SDS011;46967;48.876;2.136;2023-04-21T01:48:27;18.23;;;13.25;;
61085;SDS011;46967;48.876;2.136;2023-04-21T01:50:52;17.98;;;13.20;;
61085;SDS011;46967;48.876;2.136;2023-04-21T01:53:18;18.13;;;12.88;;
61085;SDS011;46967;48.876;2.136;2023-04-21T01:55:43;21.10;;;13.27;;
61085;SDS011;46967;48.876;2.136;2023-04-21T01:58:08;16.90;;;12.50;;
61085;SDS011;46967;48.876;2.136;2023-04-21T02:00:34;16.60;;;11.70;;
61085;SDS011;46967;48.876;2.136;2023-04-21T02:02:59;18.83;;;12.35;;
61085;SDS011;46967;48.876;2.136;2023-04-21T02:05:24;19.52;;;12.00;;
61085;SDS011;46967;48.876;2.136;2023-04-21T02:07:50;14.95;;;10.82;;
61085;SDS011;46967;48.876;2.136;2023-04-21T02:10:15;18.23;;;12.05;;
61085;SDS011;46967;48.876;2.136;2023-04-21T02:12:40;19.55;;;12.15;;
61085;SDS011;46967;48.876;2.136;2023-04-21T02:15:06;17.80;;;12.57;;
61085;SDS011;46967;48.876;2.136;2023-04-21T02:17:32;17.63;;;12.27;;
61085;SDS011;46967;48.876;2.136;2023-04-21T02:19:57;16.48;;;12.13;;
61085;SDS011;46967;48.876;2.136;2023-04-21T02:22:23;15.00;;;11.68;;
61085;SDS011;46967;48.876;2.136;2023-04-21T02:24:48;18.13;;;12.35;;
61085;SDS011;46967;48.876;2.136;2023-04-21T02:27:14;15.77;;;11.63;;
61085;SDS011;46967;48.876;2.136;2023-04-21T02:29:40;16.30;;;11.32;;
61085;SDS011;46967;48.876;2.136;2023-04-21T02:32:05;17.45;;;11.77;;
61085;SDS011;46967;48.876;2.136;2023-04-21T02:34:31;13.98;;;10.73;;
61085;SDS011;46967;48.876;2.136;2023-04-21T02:36:57;17.58;;;10.63;;
61085;SDS011;46967;48.876;2.136;2023-04-21T02:39:23;16.90;;;12.20;;
61085;SDS011;46967;48.876;2.136;2023-04-21T02:41:49;16.75;;;11.48;;
61085;SDS011;46967;48.876;2.136;2023-04-21T02:44:14;16.30;;;11.13;;
61085;SDS011;46967;48.876;2.136;2023-04-21T02:46:40;15.15;;;10.20;;
61085;SDS011;46967;48.876;2.136;2023-04-21T02:49:05;17.63;;;11.52;;
61085;SDS011;46967;48.876;2.136;2023-04-21T02:51:31;14.20;;;10.85;;
61085;SDS011;46967;48.876;2.136;2023-04-21T02:53:56;16.60;;;11.68;;
61085;SDS011;46967;48.876;2.136;2023-04-21T02:56:22;17.23;;;11.57;;
61085;SDS011;46967;48.876;2.136;2023-04-21T02:58:47;16.88;;;11.18;;
61085;SDS011;46967;48.876;2.136;2023-04-21T03:01:12;14.63;;;10.85;;
61085;SDS011;46967;48.876;2.136;2023-04-21T03:03:38;15.30;;;11.50;;
61085;SDS011;46967;48.876;2.136;2023-04-21T03:06:03;14.95;;;10.77;;
61085;SDS011;46967;48.876;2.136;2023-04-21T03:08:29;15.88;;;11.52;;
61085;SDS011;46967;48.876;2.136;2023-04-21T03:10:55;17.15;;;10.60;;
61085;SDS011;46967;48.876;2.136;2023-04-21T03:13:21;16.73;;;11.18;;
61085;SDS011;46967;48.876;2.136;2023-04-21T03:15:47;16.75;;;11.32;;
61085;SDS011;46967;48.876;2.136;2023-04-21T03:18:13;16.67;;;11.07;;
61085;SDS011;46967;48.876;2.136;2023-04-21T03:20:38;15.18;;;10.95;;
61085;SDS011;46967;48.876;2.136;2023-04-21T03:23:03;16.15;;;10.85;;
61085;SDS011;46967;48.876;2.136;2023-04-21T03:25:29;14.93;;;10.68;;
61085;SDS011;46967;48.876;2.136;2023-04-21T03:27:54;17.92;;;10.90;;
61085;SDS011;46967;48.876;2.136;2023-04-21T03:30:20;16.33;;;11.10;;
61085;SDS011;46967;48.876;2.136;2023-04-21T03:32:46;16.40;;;10.43;;
61085;SDS011;46967;48.876;2.136;2023-04-21T03:35:11;14.55;;;10.60;;
61085;SDS011;46967;48.876;2.136;2023-04-21T03:37:37;14.55;;;10.43;;
61085;SDS011;46967;48.876;2.136;2023-04-21T03:40:02;14.43;;;10.93;;
61085;SDS011;46967;48.876;2.136;2023-04-21T03:42:32;15.50;;;9.98;;
61085;SDS011;46967;48.876;2.136;2023-04-21T03:45:04;15.57;;;10.38;;
61085;SDS011;46967;48.876;2.136;2023-04-21T03:47:31;14.50;;;9.90;;
61085;SDS011;46967;48.876;2.136;2023-04-21T03:49:56;14.68;;;10.48;;
61085;SDS011;46967;48.876;2.136;2023-04-21T03:52:22;14.30;;;10.50;;
61085;SDS011;46967;48.876;2.136;2023-04-21T03:54:48;15.68;;;10.65;;
61085;SDS011;46967;48.876;2.136;2023-04-21T03:57:13;14.55;;;10.60;;
61085;SDS011;46967;48.876;2.136;2023-04-21T03:59:40;14.68;;;9.68;;
61085;SDS011;46967;48.876;2.136;2023-04-21T04:02:06;13.35;;;9.60;;
61085;SDS011;46967;48.876;2.136;2023-04-21T04:04:31;13.25;;;9.70;;
61085;SDS011;46967;48.876;2.136;2023-04-21T04:06:57;13.85;;;9.93;;
61085;SDS011;46967;48.876;2.136;2023-04-21T04:09:22;13.55;;;9.27;;
61085;SDS011;46967;48.876;2.136;2023-04-21T04:11:48;14.40;;;10.02;;
61085;SDS011;46967;48.876;2.136;2023-04-21T04:14:13;16.05;;;10.32;;
61085;SDS011;46967;48.876;2.136;2023-04-21T04:16:38;17.15;;;10.27;;
61085;SDS011;46967;48.876;2.136;2023-04-21T04:19:05;13.13;;;9.65;;
61085;SDS011;46967;48.876;2.136;2023-04-21T04:21:30;13.98;;;10.00;;
61085;SDS011;46967;48.876;2.136;2023-04-21T04:23:56;14.02;;;9.90;;
61085;SDS011;46967;48.876;2.136;2023-04-21T04:26:23;14.57;;;9.90;;
61085;SDS011;46967;48.876;2.136;2023-04-21T04:28:49;12.98;;;9.23;;
61085;SDS011;46967;48.876;2.136;2023-04-21T04:31:14;14.15;;;8.95;;
61085;SDS011;46967;48.876;2.136;2023-04-21T04:33:41;13.25;;;10.00;;
61085;SDS011;46967;48.876;2.136;2023-04-21T04:36:06;14.02;;;9.82;;
61085;SDS011;46967;48.876;2.136;2023-04-21T04:38:32;15.13;;;10.40;;
61085;SDS011;46967;48.876;2.136;2023-04-21T04:40:58;15.85;;;10.23;;
61085;SDS011;46967;48.876;2.136;2023-04-21T04:43:26;15.55;;;9.75;;
61085;SDS011;46967;48.876;2.136;2023-04-21T04:45:51;13.43;;;9.70;;
61085;SDS011;46967;48.876;2.136;2023-04-21T04:48:17;12.73;;;9.25;;
61085;SDS011;46967;48.876;2.136;2023-04-21T04:50:42;15.20;;;9.10;;
61085;SDS011;46967;48.876;2.136;2023-04-21T04:53:08;13.15;;;9.93;;
61085;SDS011;46967;48.876;2.136;2023-04-21T04:55:34;15.90;;;9.82;;
61085;SDS011;46967;48.876;2.136;2023-04-21T04:57:59;13.25;;;10.02;;
61085;SDS011;46967;48.876;2.136;2023-04-21T05:00:25;13.27;;;9.77;;
61085;SDS011;46967;48.876;2.136;2023-04-21T05:02:52;13.50;;;9.52;;
61085;SDS011;46967;48.876;2.136;2023-04-21T05:05:18;14.48;;;10.35;;
61085;SDS011;46967;48.876;2.136;2023-04-21T05:07:44;14.02;;;10.07;;
61085;SDS011;46967;48.876;2.136;2023-04-21T05:10:09;15.52;;;9.98;;
61085;SDS011;46967;48.876;2.136;2023-04-21T05:12:35;16.98;;;10.15;;
61085;SDS011;46967;48.876;2.136;2023-04-21T05:15:00;12.45;;;9.82;;
61085;SDS011;46967;48.876;2.136;2023-04-21T05:17:25;15.77;;;9.85;;
61085;SDS011;46967;48.876;2.136;2023-04-21T05:19:52;13.25;;;9.43;;
61085;SDS011;46967;48.876;2.136;2023-04-21T05:22:17;13.55;;;9.73;;
61085;SDS011;46967;48.876;2.136;2023-04-21T05:24:43;13.07;;;9.73;;
61085;SDS011;46967;48.876;2.136;2023-04-21T05:27:08;15.02;;;9.98;;
61085;SDS011;46967;48.876;2.136;2023-04-21T05:29:34;14.50;;;9.85;;
61085;SDS011;46967;48.876;2.136;2023-04-21T05:31:59;13.65;;;9.90;;
61085;SDS011;46967;48.876;2.136;2023-04-21T05:34:25;16.27;;;10.27;;
61085;SDS011;46967;48.876;2.136;2023-04-21T05:36:50;14.45;;;9.80;;
61085;SDS011;46967;48.876;2.136;2023-04-21T05:39:16;13.07;;;9.52;;
61085;SDS011;46967;48.876;2.136;2023-04-21T05:41:42;15.65;;;10.35;;
61085;SDS011;46967;48.876;2.136;2023-04-21T05:44:07;14.52;;;10.23;;
61085;SDS011;46967;48.876;2.136;2023-04-21T05:46:32;13.68;;;9.93;;
61085;SDS011;46967;48.876;2.136;2023-04-21T05:48:58;12.93;;;10.05;;
61085;SDS011;46967;48.876;2.136;2023-04-21T05:51:26;13.75;;;10.07;;
61085;SDS011;46967;48.876;2.136;2023-04-21T05:53:51;15.18;;;10.75;;
61085;SDS011;46967;48.876;2.136;2023-04-21T05:56:17;17.08;;;10.35;;
61085;SDS011;46967;48.876;2.136;2023-04-21T05:58:42;14.35;;;10.57;;
61085;SDS011;46967;48.876;2.136;2023-04-21T06:01:08;15.98;;;10.10;;
61085;SDS011;46967;48.876;2.136;2023-04-21T06:03:33;14.48;;;10.18;;
61085;SDS011;46967;48.876;2.136;2023-04-21T06:06:00;15.15;;;10.02;;
61085;SDS011;46967;48.876;2.136;2023-04-21T06:08:26;14.65;;;10.98;;
61085;SDS011;46967;48.876;2.136;2023-04-21T06:10:51;13.38;;;10.23;;
61085;SDS011;46967;48.876;2.136;2023-04-21T06:13:17;15.52;;;10.10;;
61085;SDS011;46967;48.876;2.136;2023-04-21T06:15:42;17.27;;;10.75;;
61085;SDS011;46967;48.876;2.136;2023-04-21T06:18:07;15.05;;;10.25;;
61085;SDS011;46967;48.876;2.136;2023-04-21T06:20:33;15.63;;;10.45;;
61085;SDS011;46967;48.876;2.136;2023-04-21T06:22:58;13.75;;;10.13;;
61085;SDS011;46967;48.876;2.136;2023-04-21T06:25:23;14.50;;;10.57;;
61085;SDS011;46967;48.876;2.136;2023-04-21T06:27:49;15.73;;;11.07;;
61085;SDS011;46967;48.876;2.136;2023-04-21T06:30:15;15.23;;;11.55;;
61085;SDS011;46967;48.876;2.136;2023-04-21T06:32:41;15.70;;;10.75;;
61085;SDS011;46967;48.876;2.136;2023-04-21T06:35:07;15.18;;;10.77;;
61085;SDS011;46967;48.876;2.136;2023-04-21T06:37:33;19.00;;;11.02;;
61085;SDS011;46967;48.876;2.136;2023-04-21T06:39:58;18.27;;;11.13;;
61085;SDS011;46967;48.876;2.136;2023-04-21T06:42:23;15.32;;;10.75;;
61085;SDS011;46967;48.876;2.136;2023-04-21T06:44:49;14.75;;;10.80;;
61085;SDS011;46967;48.876;2.136;2023-04-21T06:47:14;14.68;;;10.98;;
61085;SDS011;46967;48.876;2.136;2023-04-21T06:49:40;12.98;;;10.13;;
61085;SDS011;46967;48.876;2.136;2023-04-21T06:52:06;14.82;;;10.25;;
61085;SDS011;46967;48.876;2.136;2023-04-21T06:54:31;14.52;;;10.75;;
61085;SDS011;46967;48.876;2.136;2023-04-21T06:56:57;17.55;;;10.77;;
61085;SDS011;46967;48.876;2.136;2023-04-21T06:59:22;14.77;;;11.07;;
61085;SDS011;46967;48.876;2.136;2023-04-21T07:01:47;15.13;;;11.05;;
61085;SDS011;46967;48.876;2.136;2023-04-21T07:04:16;13.48;;;10.35;;
61085;SDS011;46967;48.876;2.136;2023-04-21T07:06:42;17.30;;;10.63;;
61085;SDS011;46967;48.876;2.136;2023-04-21T07:09:07;17.25;;;11.93;;
61085;SDS011;46967;48.876;2.136;2023-04-21T07:11:33;18.92;;;12.15;;
61085;SDS011;46967;48.876;2.136;2023-04-21T07:13:58;14.90;;;10.65;;
61085;SDS011;46967;48.876;2.136;2023-04-21T07:16:26;20.45;;;11.45;;
61085;SDS011;46967;48.876;2.136;2023-04-21T07:18:52;15.90;;;11.77;;
61085;SDS011;46967;48.876;2.136;2023-04-21T07:21:18;15.77;;;11.50;;
61085;SDS011;46967;48.876;2.136;2023-04-21T07:23:43;15.35;;;11.35;;
61085;SDS011;46967;48.876;2.136;2023-04-21T07:26:08;16.15;;;11.45;;
61085;SDS011;46967;48.876;2.136;2023-04-21T07:28:34;15.73;;;10.98;;
61085;SDS011;46967;48.876;2.136;2023-04-21T07:31:00;17.02;;;11.48;;
61085;SDS011;46967;48.876;2.136;2023-04-21T07:33:25;17.02;;;11.15;;
61085;SDS011;46967;48.876;2.136;2023-04-21T07:35:50;19.38;;;11.80;;
61085;SDS011;46967;48.876;2.136;2023-04-21T07:38:16;15.00;;;10.82;;
61085;SDS011;46967;48.876;2.136;2023-04-21T07:40:41;15.57;;;11.80;;
61085;SDS011;46967;48.876;2.136;2023-04-21T07:43:06;14.93;;;10.82;;
61085;SDS011;46967;48.876;2.136;2023-04-21T07:45:32;15.85;;;11.82;;
61085;SDS011;46967;48.876;2.136;2023-04-21T07:47:57;15.88;;;11.32;;
61085;SDS011;46967;48.876;2.136;2023-04-21T07:50:23;16.27;;;11.40;;
61085;SDS011;46967;48.876;2.136;2023-04-21T07:52:48;17.80;;;12.00;;
61085;SDS011;46967;48.876;2.136;2023-04-21T07:55:14;15.80;;;12.13;;
61085;SDS011;46967;48.876;2.136;2023-04-21T07:57:39;16.02;;;11.50;;
61085;SDS011;46967;48.876;2.136;2023-04-21T08:00:05;15.13;;;11.05;;
61085;SDS011;46967;48.876;2.136;2023-04-21T08:02:31;14.27;;;11.10;;
61085;SDS011;46967;48.876;2.136;2023-04-21T08:04:56;15.93;;;11.80;;
61085;SDS011;46967;48.876;2.136;2023-04-21T08:07:21;15.82;;;11.48;;
61085;SDS011;46967;48.876;2.136;2023-04-21T08:09:47;17.15;;;11.15;;
61085;SDS011;46967;48.876;2.136;2023-04-21T08:12:12;15.70;;;11.48;;
61085;SDS011;46967;48.876;2.136;2023-04-21T08:14:38;17.15;;;11.75;;
61085;SDS011;46967;48.876;2.136;2023-04-21T08:17:04;14.57;;;11.88;;
61085;SDS011;46967;48.876;2.136;2023-04-21T08:19:29;15.30;;;11.32;;
61085;SDS011;46967;48.876;2.136;2023-04-21T08:21:55;16.05;;;11.27;;
61085;SDS011;46967;48.876;2.136;2023-04-21T08:24:21;16.20;;;11.02;;
61085;SDS011;46967;48.876;2.136;2023-04-21T08:26:46;17.23;;;11.88;;
61085;SDS011;46967;48.876;2.136;2023-04-21T08:29:12;15.25;;;11.05;;
61085;SDS011;46967;48.876;2.136;2023-04-21T08:31:38;15.00;;;10.65;;
61085;SDS011;46967;48.876;2.136;2023-04-21T08:34:03;15.38;;;10.05;;
61085;SDS011;46967;48.876;2.136;2023-04-21T08:36:28;15.60;;;10.93;;
61085;SDS011;46967;48.876;2.136;2023-04-21T08:38:55;15.50;;;10.23;;
61085;SDS011;46967;48.876;2.136;2023-04-21T08:41:21;15.10;;;10.77;;
61085;SDS011;46967;48.876;2.136;2023-04-21T08:43:46;17.02;;;10.73;;
61085;SDS011;46967;48.876;2.136;2023-04-21T08:46:12;14.95;;;10.90;;
61085;SDS011;46967;48.876;2.136;2023-04-21T08:48:37;13.15;;;9.50;;
61085;SDS011;46967;48.876;2.136;2023-04-21T08:51:05;14.57;;;10.98;;
61085;SDS011;46967;48.876;2.136;2023-04-21T08:53:34;14.35;;;9.75;;
61085;SDS011;46967;48.876;2.136;2023-04-21T08:56:02;12.10;;;9.25;;
61085;SDS011;46967;48.876;2.136;2023-04-21T08:58:28;11.90;;;9.10;;
61085;SDS011;46967;48.876;2.136;2023-04-21T09:00:53;11.95;;;9.00;;
61085;SDS011;46967;48.876;2.136;2023-04-21T09:03:22;12.68;;;8.63;;
61085;SDS011;46967;48.876;2.136;2023-04-21T09:06:02;10.70;;;8.10;;
61085;SDS011;46967;48.876;2.136;2023-04-21T09:08:29;14.93;;;8.77;;
61085;SDS011;46967;48.876;2.136;2023-04-21T09:10:55;10.90;;;8.68;;
61085;SDS011;46967;48.876;2.136;2023-04-21T09:13:28;10.85;;;7.78;;
61085;SDS011;46967;48.876;2.136;2023-04-21T09:15:57;13.95;;;7.93;;
61085;SDS011;46967;48.876;2.136;2023-04-21T09:18:24;9.85;;;7.63;;
61085;SDS011;46967;48.876;2.136;2023-04-21T09:20:53;9.82;;;8.05;;
61085;SDS011;46967;48.876;2.136;2023-04-21T09:23:42;9.65;;;7.43;;
61085;SDS011;46967;48.876;2.136;2023-04-21T09:26:12;9.20;;;7.55;;
61085;SDS011;46967;48.876;2.136;2023-04-21T09:28:42;13.80;;;7.68;;
61085;SDS011;46967;48.876;2.136;2023-04-21T09:31:11;9.30;;;7.45;;
61085;SDS011;46967;48.876;2.136;2023-04-21T09:33:48;10.15;;;7.82;;
61085;SDS011;46967;48.876;2.136;2023-04-21T09:36:18;9.75;;;7.75;;
61085;SDS011;46967;48.876;2.136;2023-04-21T09:38:58;10.35;;;7.63;;
61085;SDS011;46967;48.876;2.136;2023-04-21T09:41:25;12.88;;;7.93;;
61085;SDS011;46967;48.876;2.136;2023-04-21T09:43:51;11.93;;;7.70;;
61085;SDS011;46967;48.876;2.136;2023-04-21T09:46:16;10.35;;;7.60;;
61085;SDS011;46967;48.876;2.136;2023-04-21T09:48:44;10.35;;;6.95;;
61085;SDS011;46967;48.876;2.136;2023-04-21T09:51:11;8.68;;;7.32;;
61085;SDS011;46967;48.876;2.136;2023-04-21T09:53:38;9.32;;;7.20;;
61085;SDS011;46967;48.876;2.136;2023-04-21T09:56:05;11.45;;;7.35;;
61085;SDS011;46967;48.876;2.136;2023-04-21T09:58:40;8.15;;;7.05;;
61085;SDS011;46967;48.876;2.136;2023-04-21T10:01:12;8.77;;;6.55;;
61085;SDS011;46967;48.876;2.136;2023-04-21T10:03:39;8.90;;;7.35;;
61085;SDS011;46967;48.876;2.136;2023-04-21T10:06:06;13.57;;;7.50;;
61085;SDS011;46967;48.876;2.136;2023-04-21T10:08:31;10.32;;;7.25;;
61085;SDS011;46967;48.876;2.136;2023-04-21T10:10:57;9.43;;;8.07;;
61085;SDS011;46967;48.876;2.136;2023-04-21T10:13:23;10.93;;;7.88;;
61085;SDS011;46967;48.876;2.136;2023-04-21T10:15:49;9.68;;;7.53;;
61085;SDS011;46967;48.876;2.136;2023-04-21T10:18:27;9.20;;;7.07;;
61085;SDS011;46967;48.876;2.136;2023-04-21T10:20:53;15.38;;;6.90;;
61085;SDS011;46967;48.876;2.136;2023-04-21T10:23:36;11.13;;;7.32;;
61085;SDS011;46967;48.876;2.136;2023-04-21T10:26:20;9.82;;;7.13;;
61085;SDS011;46967;48.876;2.136;2023-04-21T10:31:24;10.82;;;7.18;;
61085;SDS011;46967;48.876;2.136;2023-04-21T10:39:08;12.75;;;7.50;;
61085;SDS011;46967;48.876;2.136;2023-04-21T10:41:37;16.08;;;7.70;;
61085;SDS011;46967;48.876;2.136;2023-04-21T10:46:34;10.02;;;8.13;;
61085;SDS011;46967;48.876;2.136;2023-04-21T10:49:11;10.55;;;6.97;;
61085;SDS011;46967;48.876;2.136;2023-04-21T10:54:25;10.90;;;7.32;;
61085;SDS011;46967;48.876;2.136;2023-04-21T10:56:56;9.98;;;7.38;;
61085;SDS011;46967;48.876;2.136;2023-04-21T10:59:23;12.00;;;7.70;;
61085;SDS011;46967;48.876;2.136;2023-04-21T11:01:50;12.80;;;7.20;;
61085;SDS011;46967;48.876;2.136;2023-04-21T11:04:16;11.60;;;7.95;;
61085;SDS011;46967;48.876;2.136;2023-04-21T11:06:47;8.40;;;7.05;;
61085;SDS011;46967;48.876;2.136;2023-04-21T11:09:28;10.65;;;6.78;;
61085;SDS011;46967;48.876;2.136;2023-04-21T11:11:58;10.95;;;7.25;;
61085;SDS011;46967;48.876;2.136;2023-04-21T11:14:28;9.13;;;6.95;;
61085;SDS011;46967;48.876;2.136;2023-04-21T11:16:54;9.38;;;7.28;;
61085;SDS011;46967;48.876;2.136;2023-04-21T11:19:19;9.10;;;6.50;;
61085;SDS011;46967;48.876;2.136;2023-04-21T11:21:48;10.43;;;6.47;;
61085;SDS011;46967;48.876;2.136;2023-04-21T11:24:14;8.73;;;7.10;;
61085;SDS011;46967;48.876;2.136;2023-04-21T11:26:39;8.60;;;7.03;;
61085;SDS011;46967;48.876;2.136;2023-04-21T11:29:07;10.40;;;6.90;;
61085;SDS011;46967;48.876;2.136;2023-04-21T11:31:37;10.57;;;7.38;;
61085;SDS011;46967;48.876;2.136;2023-04-21T11:34:04;8.32;;;6.22;;
61085;SDS011;46967;48.876;2.136;2023-04-21T11:36:38;7.70;;;6.28;;
61085;SDS011;46967;48.876;2.136;2023-04-21T11:39:05;9.93;;;6.68;;
61085;SDS011;46967;48.876;2.136;2023-04-21T11:41:34;8.80;;;6.78;;
61085;SDS011;46967;48.876;2.136;2023-04-21T11:44:00;8.98;;;6.50;;
61085;SDS011;46967;48.876;2.136;2023-04-21T11:46:26;9.23;;;7.50;;
61085;SDS011;46967;48.876;2.136;2023-04-21T11:48:59;10.93;;;6.60;;
61085;SDS011;46967;48.876;2.136;2023-04-21T11:51:25;9.30;;;6.82;;
61085;SDS011;46967;48.876;2.136;2023-04-21T11:53:52;9.63;;;6.30;;
61085;SDS011;46967;48.876;2.136;2023-04-21T11:56:19;12.48;;;6.85;;
61085;SDS011;46967;48.876;2.136;2023-04-21T11:58:46;9.02;;;6.72;;
61085;SDS011;46967;48.876;2.136;2023-04-21T12:01:14;8.52;;;6.50;;
61085;SDS011;46967;48.876;2.136;2023-04-21T12:03:40;8.25;;;6.30;;
61085;SDS011;46967;48.876;2.136;2023-04-21T12:06:06;10.02;;;6.30;;
61085;SDS011;46967;48.876;2.136;2023-04-21T12:08:31;8.40;;;6.30;;
61085;SDS011;46967;48.876;2.136;2023-04-21T12:10:57;9.93;;;6.60;;
61085;SDS011;46967;48.876;2.136;2023-04-21T12:13:26;8.15;;;6.28;;
61085;SDS011;46967;48.876;2.136;2023-04-21T12:15:52;12.05;;;6.30;;
61085;SDS011;46967;48.876;2.136;2023-04-21T12:18:17;7.85;;;6.70;;
61085;SDS011;46967;48.876;2.136;2023-04-21T12:20:49;8.63;;;6.13;;
61085;SDS011;46967;48.876;2.136;2023-04-21T12:23:17;11.20;;;6.03;;
61085;SDS011;46967;48.876;2.136;2023-04-21T12:25:42;9.40;;;6.00;;
61085;SDS011;46967;48.876;2.136;2023-04-21T12:28:09;10.07;;;6.47;;
61085;SDS011;46967;48.876;2.136;2023-04-21T12:30:43;13.13;;;6.20;;
61085;SDS011;46967;48.876;2.136;2023-04-21T12:33:09;7.55;;;5.88;;
61085;SDS011;46967;48.876;2.136;2023-04-21T12:35:35;10.70;;;6.40;;
61085;SDS011;46967;48.876;2.136;2023-04-21T12:38:00;8.40;;;6.50;;
61085;SDS011;46967;48.876;2.136;2023-04-21T12:40:25;8.27;;;5.45;;
61085;SDS011;46967;48.876;2.136;2023-04-21T12:42:51;10.63;;;5.60;;
61085;SDS011;46967;48.876;2.136;2023-04-21T12:45:16;12.40;;;6.65;;
61085;SDS011;46967;48.876;2.136;2023-04-21T12:47:42;7.22;;;5.95;;
61085;SDS011;46967;48.876;2.136;2023-04-21T12:50:07;6.75;;;5.72;;
61085;SDS011;46967;48.876;2.136;2023-04-21T12:52:34;11.35;;;5.65;;
61085;SDS011;46967;48.876;2.136;2023-04-21T12:55:00;7.00;;;5.75;;
61085;SDS011;46967;48.876;2.136;2023-04-21T12:57:25;6.10;;;4.93;;
61085;SDS011;46967;48.876;2.136;2023-04-21T12:59:51;10.15;;;6.78;;
61085;SDS011;46967;48.876;2.136;2023-04-21T13:02:16;5.80;;;4.50;;
61085;SDS011;46967;48.876;2.136;2023-04-21T13:04:41;5.72;;;4.85;;
61085;SDS011;46967;48.876;2.136;2023-04-21T13:07:07;6.20;;;4.75;;
61085;SDS011;46967;48.876;2.136;2023-04-21T13:09:32;6.35;;;4.93;;
61085;SDS011;46967;48.876;2.136;2023-04-21T13:11:58;5.80;;;4.80;;
61085;SDS011;46967;48.876;2.136;2023-04-21T13:14:23;6.00;;;4.10;;
61085;SDS011;46967;48.876;2.136;2023-04-21T13:16:48;7.75;;;4.93;;
61085;SDS011;46967;48.876;2.136;2023-04-21T13:19:14;5.22;;;4.40;;
61085;SDS011;46967;48.876;2.136;2023-04-21T13:21:39;6.65;;;5.10;;
61085;SDS011;46967;48.876;2.136;2023-04-21T13:24:05;7.10;;;5.70;;
61085;SDS011;46967;48.876;2.136;2023-04-21T13:26:31;5.72;;;5.07;;
61085;SDS011;46967;48.876;2.136;2023-04-21T13:29:00;7.60;;;5.73;;
61085;SDS011;46967;48.876;2.136;2023-04-21T13:31:26;6.93;;;5.70;;
61085;SDS011;46967;48.876;2.136;2023-04-21T13:33:52;6.40;;;5.00;;
61085;SDS011;46967;48.876;2.136;2023-04-21T13:36:17;6.32;;;4.72;;
61085;SDS011;46967;48.876;2.136;2023-04-21T13:38:43;6.72;;;5.25;;
61085;SDS011;46967;48.876;2.136;2023-04-21T13:41:08;7.35;;;5.43;;
61085;SDS011;46967;48.876;2.136;2023-04-21T13:43:34;6.88;;;5.32;;
61085;SDS011;46967;48.876;2.136;2023-04-21T13:45:59;7.75;;;5.13;;
61085;SDS011;46967;48.876;2.136;2023-04-21T13:48:25;5.93;;;4.35;;
61085;SDS011;46967;48.876;2.136;2023-04-21T13:50:50;8.52;;;5.03;;
61085;SDS011;46967;48.876;2.136;2023-04-21T13:53:16;7.05;;;5.50;;
61085;SDS011;46967;48.876;2.136;2023-04-21T13:55:43;7.97;;;5.10;;
61085;SDS011;46967;48.876;2.136;2023-04-21T13:58:08;7.43;;;5.10;;
61085;SDS011;46967;48.876;2.136;2023-04-21T14:00:35;10.18;;;5.35;;
61085;SDS011;46967;48.876;2.136;2023-04-21T14:03:00;8.52;;;5.10;;
61085;SDS011;46967;48.876;2.136;2023-04-21T14:05:26;7.90;;;5.53;;
61085;SDS011;46967;48.876;2.136;2023-04-21T14:07:51;6.22;;;4.57;;
61085;SDS011;46967;48.876;2.136;2023-04-21T14:10:17;6.68;;;5.10;;
61085;SDS011;46967;48.876;2.136;2023-04-21T14:12:42;8.23;;;5.20;;
61085;SDS011;46967;48.876;2.136;2023-04-21T14:15:09;7.15;;;5.07;;
61085;SDS011;46967;48.876;2.136;2023-04-21T14:17:36;6.00;;;4.97;;
61085;SDS011;46967;48.876;2.136;2023-04-21T14:20:01;7.15;;;5.40;;
61085;SDS011;46967;48.876;2.136;2023-04-21T14:22:27;7.07;;;5.45;;
61085;SDS011;46967;48.876;2.136;2023-04-21T14:24:53;6.43;;;5.20;;
61085;SDS011;46967;48.876;2.136;2023-04-21T14:27:18;6.03;;;4.82;;
61085;SDS011;46967;48.876;2.136;2023-04-21T14:29:44;7.03;;;4.90;;
61085;SDS011;46967;48.876;2.136;2023-04-21T14:32:09;5.78;;;4.40;;
61085;SDS011;46967;48.876;2.136;2023-04-21T14:34:35;7.13;;;5.15;;
61085;SDS011;46967;48.876;2.136;2023-04-21T14:37:00;6.90;;;4.65;;
61085;SDS011;46967;48.876;2.136;2023-04-21T14:39:25;7.10;;;5.10;;
61085;SDS011;46967;48.876;2.136;2023-04-21T14:41:51;7.13;;;5.20;;